• Join FlightAware (Why Join?)
  • Login
  • US Flag GB Flag 
08:40 EDT


 

Airport Tracker/Info


-or-


 

Live Flight TrackerFlight Track Log ✈ N6ZQ ✈ 08-Apr-2013 ✈ KHRT - KLAL

Flight Track Log - Related Links

Times and Time Zones

All times are in EDT time to prevent confusion due to time zone crossing. See the N6ZQ flight status page for this flight to view local times or setup timezone preferences in your user account.

Time Position Orientation Groundspeed Altitude Reporting Facility
EDT Latitude Longitude Course Direction KTS MPH feet Rate Location/Type
14:57 30.2966 -86.4238 120° Southeast  Level Estimated
14:58 30.2778 -86.3859 120° Southeast  Level Estimated
14:59 30.2590 -86.3481 120° Southeast  Level Estimated
15:00 30.2402 -86.3102 120° Southeast  Level Estimated
15:01 30.2214 -86.2724 120° Southeast  Level Estimated
15:02 30.2026 -86.2346 120° Southeast  Level Estimated
15:03 30.1837 -86.1968 120° Southeast  Level Estimated
15:04 30.1649 -86.1590 120° Southeast  Level Estimated
15:05 30.1460 -86.1212 120° Southeast  Level Estimated
15:06 30.1269 -86.0830 120° Southeast  Level Estimated
15:07 30.1078 -86.0448 120° Southeast  Level Estimated
15:08 30.0887 -86.0066 120° Southeast  Level Estimated
15:09 30.0695 -85.9684 120° Southeast  Level Estimated
15:10 30.0504 -85.9302 120° Southeast  Level Estimated
15:11 30.0312 -85.8921 120° Southeast  Level Estimated
15:12 30.0120 -85.8539 120° Southeast  Level Estimated
15:13 29.9928 -85.8158 120° Southeast  Level Estimated
15:14 29.9736 -85.7777 120° Southeast  Level Estimated
15:15 29.9549 -85.7406 120° Southeast  Level Estimated
15:16 29.9362 -85.7036 120° Southeast  Level Estimated
15:17 29.9175 -85.6666 120° Southeast  Level Estimated
15:17 30.0650 -85.0214 120° Southeast 199 229 11,500  Level Jacksonville Center
15:18 29.8988 -85.6295 120° Southeast  Level Estimated
15:18 30.0533 -84.9658 104° East 205 236 11,500  Level Jacksonville Center
15:19 29.8801 -85.5926 120° Southeast  Level Estimated
15:19 30.0397 -84.9008 104° East 205 236 11,500  Level Jacksonville Center
15:20 29.8613 -85.5556 120° Southeast  Level Estimated
15:20 30.0261 -84.8381 104° East 200 230 11,500  Level Jacksonville Center
15:21 29.8426 -85.5186 120° Southeast  Level Estimated
15:21 30.0147 -84.7756 102° East 200 230 11,500  Level Jacksonville Center
15:22 29.8238 -85.4816 120° Southeast  Level Estimated
15:22 30.0008 -84.7131 104° East 200 230 11,500  Level Jacksonville Center
15:23 29.8050 -85.4447 120° Southeast  Level Estimated
15:23 29.9850 -84.6478 106° East 200 230 11,500  Level Jacksonville Center
15:24 29.9714 -84.5853 104° East 200 230 11,500  Level Jacksonville Center
15:25 29.9597 -84.5253 103° East 200 230 11,500  Level Jacksonville Center
15:26 29.9458 -84.4603 104° East 200 230 11,500  Level Jacksonville Center
15:27 29.9319 -84.4000 105° East 200 230 11,500  Level Jacksonville Center
15:28 29.9181 -84.3400 105° East 200 230 11,500  Level Jacksonville Center
15:29 29.9061 -84.2775 102° East 200 230 11,500  Level Jacksonville Center
15:30 29.8922 -84.2175 105° East 200 230 11,500  Level Jacksonville Center
15:31 29.8803 -84.1622 104° East 200 230 11,500  Level Jacksonville Center
15:32 29.8683 -84.1022 103° East 195 224 11,500  Level Jacksonville Center
15:33 29.8481 -84.0444 112° Southeast 195 224 11,500  Level Jacksonville Center
15:34 29.8169 -83.9939 125° Southeast 195 224 11,500  Level Jacksonville Center
15:35 29.7861 -83.9431 125° Southeast 195 224 11,500  Level Jacksonville Center
15:36 29.7531 -83.8950 128° Southeast 195 224 11,500  Level Jacksonville Center
15:37 29.7203 -83.8444 127° Southeast 195 224 11,500  Level Jacksonville Center
15:38 29.6892 -83.7939 125° Southeast 200 230 11,500  Level Jacksonville Center
15:39 29.6561 -83.7433 127° Southeast 200 230 11,500  Level Jacksonville Center
15:40 29.6231 -83.6978 130° Southeast 200 230 11,500  Level Jacksonville Center
15:41 29.5919 -83.6472 125° Southeast 200 230 11,500  Level Jacksonville Center
15:42 29.5589 -83.5969 127° Southeast 200 230 11,500  Level Jacksonville Center
15:43 29.5278 -83.5467 125° Southeast 200 230 11,500  Level Jacksonville Center
15:44 29.4906 -83.5011 133° Southeast 200 230 11,500  Level Jacksonville Center
15:45 29.4531 -83.4553 133° Southeast 195 224 11,500  Level Jacksonville Center
15:46 29.4158 -83.4122 135° Southeast 195 224 11,500  Level Jacksonville Center
15:47 29.3783 -83.3669 134° Southeast 195 224 11,500  Level Jacksonville Center
15:48 29.3408 -83.3214 133° Southeast 195 224 11,500  Level Jacksonville Center
15:49 29.3036 -83.2783 135° Southeast 195 224 11,500  Level Jacksonville Center
15:50 29.2661 -83.2331 134° Southeast 195 224 11,500  Level Jacksonville Center
15:51 29.2286 -83.1878 133° Southeast 195 224 11,500  Level Jacksonville Center
15:52 29.1889 -83.1422 135° Southeast 195 224 11,500  Level Jacksonville Center
15:53 29.1536 -83.0994 133° Southeast 195 224 11,500  Level Jacksonville Center
15:54 29.1142 -83.0542 135° Southeast 195 224 11,500  Level Jacksonville Center
15:55 29.0764 -83.0089 134° Southeast 195 224 11,500  Level Jacksonville Center
15:56 29.0347 -82.9592 134° Southeast 195 224 11,500  Level Jacksonville Center
15:57 28.9994 -82.9164 133° Southeast 195 224 11,500  Level Jacksonville Center
15:58 28.9617 -82.8711 134° Southeast 195 224 11,500  Level Jacksonville Center
15:59 28.9242 -82.8286 135° Southeast 195 224 11,500  Level Jacksonville Center
16:00 28.8844 -82.7811 134° Southeast 195 224 11,500  Level Jacksonville Center
16:01 28.8511 -82.7339 129° Southeast 195 224 11,500  Level Jacksonville Center
16:03 28.8077 -82.6947 143° Southeast  Level FlightAware Approximate
16:10 28.5326 -82.4703 147° Southeast  Level FlightAware Approximate
16:11 28.4918 -82.4397 147° Southeast  Level FlightAware Approximate
16:12 28.4520 -82.4075 144° Southeast  Level FlightAware Approximate
16:13 28.4125 -82.3748 144° Southeast  Level FlightAware Approximate
16:14 28.3729 -82.3422 144° Southeast  Level FlightAware Approximate
16:15 28.3334 -82.3096 144° Southeast  Level FlightAware Approximate
16:16 28.2938 -82.2771 144° Southeast  Level FlightAware Approximate
16:17 28.2542 -82.2445 144° Southeast  Level FlightAware Approximate
16:18 28.2146 -82.2120 144° Southeast  Level FlightAware Approximate